Time;durP1;ratioP1;P1;durP2;ratioP2;P2;SDS_P1;SDS_P2;PMS_P1;PMS_P2;Temp;Humidity;BMP_temperature;BMP_pressure;BME280_temperature;BME280_humidity;BME280_pressure;Samples;Min_cycle;Max_cycle;Signal;HPM_P1;HPM_P2
2021/11/13 00:00:07;;;;;;;23.20;21.10;;;5.70;99.90;;;;;;10462438;28;20211;-82
2021/11/13 00:11:28;;;;;;;22.50;20.60;;;5.70;99.90;;;;;;10468467;28;20205;-81
2021/11/13 00:16:33;;;;;;;23.67;21.67;;;5.70;99.90;;;;;;10446605;28;20242;-81
2021/11/13 00:21:41;;;;;;;22.03;20.00;;;5.70;99.90;;;;;;10453160;28;20213;-82
2021/11/13 00:26:43;;;;;;;21.20;19.50;;;5.70;99.90;;;;;;10455435;28;20243;-82
2021/11/13 00:31:51;;;;;;;21.23;19.37;;;5.70;99.90;;;;;;10449780;28;20251;-81
2021/11/13 00:37:09;;;;;;;21.23;19.33;;;5.70;99.90;;;;;;10452172;28;20235;-81
2021/11/13 00:42:11;;;;;;;20.67;18.87;;;5.70;99.90;;;;;;10430242;28;20247;-81
2021/11/13 00:47:13;;;;;;;20.80;18.90;;;5.70;99.90;;;;;;10452916;28;20225;-82
2021/11/13 00:52:17;;;;;;;21.40;19.60;;;5.80;99.90;;;;;;10459267;28;20239;-81
2021/11/13 00:57:19;;;;;;;21.63;19.63;;;5.80;99.90;;;;;;10459681;28;20573;-82
2021/11/13 01:02:22;;;;;;;23.50;21.30;;;5.90;99.90;;;;;;10460799;28;20239;-82
2021/11/13 01:07:25;;;;;;;25.30;22.97;;;6.00;99.90;;;;;;10455840;28;20637;-82
2021/11/13 01:12:28;;;;;;;24.13;21.93;;;6.00;99.90;;;;;;10459507;28;20196;-81
2021/11/13 01:17:30;;;;;;;27.77;25.07;;;6.10;99.90;;;;;;10457658;28;20257;-81
2021/11/13 01:22:34;;;;;;;30.77;27.83;;;6.10;99.90;;;;;;10456246;28;20527;-81
2021/11/13 01:27:36;;;;;;;33.03;29.73;;;6.20;99.90;;;;;;10471246;28;20259;-82
2021/11/13 01:32:39;;;;;;;32.10;28.70;;;6.30;99.90;;;;;;10457651;28;20205;-81
2021/11/13 01:37:42;;;;;;;31.30;28.10;;;6.40;99.90;;;;;;10451590;28;20233;-81
2021/11/13 01:42:45;;;;;;;31.70;28.50;;;6.50;99.90;;;;;;10450573;28;20213;-82
2021/11/13 01:47:48;;;;;;;31.30;28.20;;;6.50;99.90;;;;;;10451562;28;20328;-82
2021/11/13 01:52:52;;;;;;;29.60;26.67;;;6.50;99.90;;;;;;10475338;28;20229;-81
2021/11/13 01:57:56;;;;;;;26.07;23.50;;;6.60;99.90;;;;;;10427347;28;20230;-81
2021/11/13 02:02:58;;;;;;;27.97;25.07;;;6.60;99.90;;;;;;10429679;28;20316;-82
2021/11/13 02:08:02;;;;;;;26.27;23.67;;;6.50;99.90;;;;;;10456917;28;20296;-81
2021/11/13 02:13:05;;;;;;;27.80;24.70;;;6.40;99.90;;;;;;10450650;28;20227;-81
2021/11/13 02:18:07;;;;;;;27.70;24.97;;;6.40;99.90;;;;;;10438803;28;20229;-81
2021/11/13 02:23:13;;;;;;;27.17;24.40;;;6.30;99.90;;;;;;10460209;28;20252;-81
2021/11/13 02:28:17;;;;;;;22.37;20.17;;;6.30;99.90;;;;;;10465647;28;20221;-81
2021/11/13 02:33:20;;;;;;;29.23;26.33;;;6.30;99.90;;;;;;10447087;28;20623;-81
2021/11/13 02:38:26;;;;;;;29.37;26.47;;;6.30;99.90;;;;;;10465525;28;20257;-82
2021/11/13 02:43:32;;;;;;;28.63;25.93;;;6.40;99.90;;;;;;10462637;28;20233;-81
2021/11/13 02:48:37;;;;;;;28.73;25.63;;;6.40;99.90;;;;;;10463549;28;20221;-81
2021/11/13 02:53:43;;;;;;;27.07;24.47;;;6.40;99.90;;;;;;10463030;28;20280;-81
2021/11/13 02:58:45;;;;;;;29.60;26.67;;;6.40;99.90;;;;;;10462314;28;20252;-82
2021/11/13 03:03:49;;;;;;;31.53;28.20;;;6.40;99.90;;;;;;10461051;28;20225;-81
2021/11/13 03:08:55;;;;;;;28.77;25.77;;;6.40;99.90;;;;;;10456564;28;20271;-81
2021/11/13 03:13:57;;;;;;;28.53;25.57;;;6.40;99.90;;;;;;10456595;28;20201;-81
2021/11/13 03:18:59;;;;;;;25.40;22.90;;;6.40;99.90;;;;;;10463998;28;20221;-81
2021/11/13 03:24:03;;;;;;;26.30;23.80;;;6.40;99.90;;;;;;10477387;28;20236;-81
2021/11/13 03:29:10;;;;;;;22.17;20.13;;;6.40;99.90;;;;;;10462812;28;20220;-81
2021/11/13 03:34:12;;;;;;;21.73;19.90;;;6.30;99.90;;;;;;10461851;28;20660;-81
2021/11/13 03:39:16;;;;;;;20.83;19.10;;;6.20;99.90;;;;;;10460675;28;20229;-82
2021/11/13 03:44:18;;;;;;;18.13;16.60;;;6.10;99.90;;;;;;10445539;28;20602;-82
2021/11/13 03:49:20;;;;;;;17.77;16.27;;;6.00;99.90;;;;;;10478767;28;20285;-81
2021/11/13 03:54:24;;;;;;;20.10;18.40;;;6.10;99.90;;;;;;10462564;28;20630;-82
2021/11/13 03:59:27;;;;;;;20.37;18.57;;;6.10;99.90;;;;;;10491281;28;20247;-81
2021/11/13 04:04:29;;;;;;;21.53;19.70;;;6.20;99.90;;;;;;10462270;28;20225;-81
2021/11/13 04:09:33;;;;;;;19.60;17.90;;;6.20;99.90;;;;;;10475207;28;20304;-82
2021/11/13 04:14:36;;;;;;;19.13;17.40;;;6.30;99.90;;;;;;10457199;28;20248;-81
2021/11/13 04:19:38;;;;;;;19.03;17.43;;;6.30;99.90;;;;;;10449437;28;20284;-81
2021/11/13 04:24:42;;;;;;;18.13;16.60;;;6.30;99.90;;;;;;10461892;28;20288;-81
2021/11/13 04:29:44;;;;;;;18.60;17.00;;;6.40;99.90;;;;;;10478626;28;20717;-81
2021/11/13 04:34:52;;;;;;;19.93;18.23;;;6.40;99.90;;;;;;10431342;28;20260;-81
2021/11/13 04:39:56;;;;;;;20.73;18.93;;;6.40;99.90;;;;;;10431193;28;20311;-81
2021/11/13 04:44:58;;;;;;;19.87;18.17;;;6.40;99.90;;;;;;10435104;28;20303;-81
2021/11/13 04:50:00;;;;;;;19.97;18.27;;;6.40;99.90;;;;;;10474014;28;20216;-81
2021/11/13 04:55:04;;;;;;;19.93;18.30;;;6.50;99.90;;;;;;10450749;28;20276;-81
2021/11/13 05:00:09;;;;;;;20.03;18.40;;;6.50;99.90;;;;;;10426924;28;20209;-81
2021/11/13 05:05:12;;;;;;;19.80;18.30;;;6.50;99.90;;;;;;10465925;28;20225;-80
2021/11/13 05:10:16;;;;;;;20.20;18.40;;;6.60;99.90;;;;;;10461963;28;20600;-81
2021/11/13 05:15:18;;;;;;;20.77;19.00;;;6.60;99.90;;;;;;10430589;28;20217;-81
2021/11/13 05:20:21;;;;;;;21.10;19.30;;;6.60;99.90;;;;;;10450973;28;20197;-81
2021/11/13 05:25:24;;;;;;;20.77;18.97;;;6.60;99.90;;;;;;10449086;28;20235;-81
2021/11/13 05:30:27;;;;;;;21.13;19.30;;;6.70;99.90;;;;;;10444546;28;20252;-81
2021/11/13 05:35:29;;;;;;;19.90;18.30;;;6.70;99.90;;;;;;10444738;28;20708;-81
2021/11/13 05:40:33;;;;;;;20.80;18.97;;;6.80;99.90;;;;;;10437480;28;20211;-81
2021/11/13 05:45:35;;;;;;;18.83;17.30;;;6.80;99.90;;;;;;10450998;28;20217;-82
2021/11/13 05:50:37;;;;;;;20.50;18.80;;;6.80;99.90;;;;;;10443366;28;20520;-81
2021/11/13 05:55:41;;;;;;;20.73;18.83;;;6.80;99.90;;;;;;10462009;28;20244;-81
2021/11/13 06:00:43;;;;;;;19.83;18.23;;;6.80;99.90;;;;;;10459319;28;20207;-81
2021/11/13 06:05:46;;;;;;;21.10;19.30;;;6.80;99.90;;;;;;10491354;22;20234;-81
2021/11/13 06:10:49;;;;;;;20.43;18.53;;;6.80;99.90;;;;;;10531019;28;20203;-81
2021/11/13 06:15:51;;;;;;;20.37;18.60;;;6.80;99.90;;;;;;10534192;28;20235;-81
2021/11/13 06:20:57;;;;;;;20.63;18.90;;;6.80;99.90;;;;;;10515949;28;20201;-80
2021/11/13 06:26:01;;;;;;;20.00;18.20;;;6.80;99.90;;;;;;10545517;28;20224;-81
2021/11/13 06:31:03;;;;;;;20.87;19.07;;;6.80;99.90;;;;;;10525992;28;20211;-80
2021/11/13 06:36:08;;;;;;;20.47;18.67;;;6.80;99.90;;;;;;10541464;28;20265;-81
2021/11/13 06:41:12;;;;;;;21.80;19.97;;;6.90;99.90;;;;;;10533864;28;20204;-81
2021/11/13 06:46:14;;;;;;;20.37;18.33;;;6.90;99.90;;;;;;10524824;28;20223;-80
2021/11/13 06:51:16;;;;;;;20.00;18.30;;;7.00;99.90;;;;;;10538029;28;20242;-81
2021/11/13 06:56:20;;;;;;;20.07;18.40;;;7.00;99.90;;;;;;10520840;28;20759;-81
2021/11/13 07:01:22;;;;;;;19.90;18.10;;;7.10;99.90;;;;;;10517723;28;20211;-81
2021/11/13 07:06:24;;;;;;;18.70;17.00;;;7.10;99.90;;;;;;10527084;28;20262;-81
2021/11/13 07:11:28;;;;;;;18.63;17.07;;;7.20;99.90;;;;;;10515741;28;20309;-81
2021/11/13 07:16:30;;;;;;;18.30;16.70;;;7.30;99.90;;;;;;10532774;28;20231;-81
2021/11/13 07:21:33;;;;;;;18.93;17.20;;;7.30;99.90;;;;;;10513169;28;20655;-82
2021/11/13 07:26:37;;;;;;;20.07;18.37;;;7.40;99.90;;;;;;10535297;28;20319;-82
2021/11/13 07:31:39;;;;;;;20.63;18.87;;;7.50;99.90;;;;;;10534663;28;20279;-82
2021/11/13 07:36:41;;;;;;;19.57;17.87;;;7.60;99.90;;;;;;10533581;28;20224;-82
2021/11/13 07:41:44;;;;;;;19.33;17.53;;;7.70;99.90;;;;;;10531971;28;20629;-82
2021/11/13 07:46:47;;;;;;;18.40;16.80;;;7.70;99.90;;;;;;10536483;28;20250;-82
2021/11/13 07:51:49;;;;;;;17.60;16.10;;;7.80;99.90;;;;;;10546963;28;20196;-82
2021/11/13 07:56:53;;;;;;;17.73;16.13;;;7.80;99.90;;;;;;10528838;28;20231;-82
2021/11/13 08:01:55;;;;;;;18.60;17.00;;;7.90;99.90;;;;;;10519252;28;20583;-82
2021/11/13 08:06:57;;;;;;;16.87;15.37;;;7.90;99.90;;;;;;10508416;28;20246;-82
2021/11/13 08:12:00;;;;;;;18.07;16.53;;;8.00;99.90;;;;;;10514883;28;20195;-82
2021/11/13 08:17:05;;;;;;;18.77;17.10;;;8.20;99.90;;;;;;10502733;28;20265;-81
2021/11/13 08:22:07;;;;;;;17.47;15.60;;;8.30;99.90;;;;;;10514666;28;20738;-81
2021/11/13 08:27:12;;;;;;;17.27;15.67;;;8.50;99.90;;;;;;10524700;28;20920;-82
2021/11/13 08:32:14;;;;;;;16.40;14.73;;;8.70;99.90;;;;;;10524858;28;20223;-83
2021/11/13 08:37:16;;;;;;;15.50;14.17;;;8.70;99.90;;;;;;10520795;28;20707;-83
2021/11/13 08:42:20;;;;;;;15.03;13.50;;;8.80;99.90;;;;;;10537967;28;20211;-81
2021/11/13 08:47:22;;;;;;;14.93;13.43;;;9.00;99.90;;;;;;10528426;28;20224;-83
2021/11/13 08:52:24;;;;;;;16.07;14.57;;;9.00;99.90;;;;;;10522099;28;20214;-82
2021/11/13 08:57:29;;;;;;;15.10;13.80;;;9.10;99.90;;;;;;10525252;28;20266;-83
2021/11/13 09:02:32;;;;;;;14.00;12.80;;;9.10;99.90;;;;;;10520725;28;20207;-82
2021/11/13 09:07:34;;;;;;;14.47;13.23;;;9.10;99.90;;;;;;10503749;28;20285;-82
2021/11/13 09:12:38;;;;;;;14.40;13.20;;;9.10;99.90;;;;;;10494397;28;20189;-82
2021/11/13 09:17:40;;;;;;;14.73;13.33;;;9.10;99.90;;;;;;10492462;28;20590;-82
2021/11/13 09:22:47;;;;;;;14.67;13.27;;;9.10;99.90;;;;;;10505776;28;20228;-80
2021/11/13 09:27:51;;;;;;;15.97;14.57;;;9.20;99.90;;;;;;10491248;28;20231;-80
2021/11/13 09:32:55;;;;;;;14.53;13.20;;;9.30;99.90;;;;;;10512389;28;20192;-80
2021/11/13 09:37:57;;;;;;;14.00;12.70;;;9.40;99.90;;;;;;10506883;28;20208;-80
2021/11/13 09:43:04;;;;;;;14.53;13.03;;;9.40;99.90;;;;;;10514910;28;20204;-79
2021/11/13 09:48:06;;;;;;;19.77;17.00;;;9.50;99.90;;;;;;10527338;28;20304;-80
2021/11/13 09:53:10;;;;;;;18.27;16.63;;;9.60;99.90;;;;;;10550564;28;20204;-80
2021/11/13 09:58:13;;;;;;;17.07;15.53;;;9.80;99.90;;;;;;10535478;28;20247;-80
2021/11/13 10:03:18;;;;;;;16.90;15.30;;;10.00;99.90;;;;;;10553583;28;20203;-80
2021/11/13 10:08:21;;;;;;;15.80;14.27;;;10.30;99.90;;;;;;10520984;28;20236;-80
2021/11/13 10:13:31;;;;;;;17.73;16.13;;;10.40;99.90;;;;;;10545379;28;20227;-80
2021/11/13 10:18:35;;;;;;;16.57;13.67;;;10.40;99.90;;;;;;10525712;28;20804;-80
2021/11/13 10:23:46;;;;;;;15.50;13.90;;;10.40;99.90;;;;;;10533238;28;20213;-80
2021/11/13 10:28:53;;;;;;;14.13;13.03;;;10.30;99.90;;;;;;10544914;28;20687;-81
2021/11/13 10:33:58;;;;;;;15.50;14.30;;;10.40;99.90;;;;;;10531532;28;20204;-80
2021/11/13 10:39:06;;;;;;;16.27;14.87;;;10.40;99.90;;;;;;10515662;28;20224;-81
2021/11/13 10:44:10;;;;;;;20.10;18.17;;;10.40;99.90;;;;;;10517635;28;20709;-81
2021/11/13 10:49:16;;;;;;;18.17;16.43;;;10.40;99.90;;;;;;10548478;28;20219;-80
2021/11/13 10:54:19;;;;;;;20.33;18.53;;;10.40;99.90;;;;;;10529454;28;20200;-80
2021/11/13 10:59:40;;;;;;;20.93;18.90;;;10.50;99.90;;;;;;10540487;28;20631;-80
2021/11/13 11:04:44;;;;;;;20.97;19.07;;;10.50;99.90;;;;;;10518295;28;20219;-80
2021/11/13 11:09:48;;;;;;;19.33;17.53;;;10.50;99.90;;;;;;10515358;28;20192;-80
2021/11/13 11:14:53;;;;;;;20.57;18.57;;;10.50;99.90;;;;;;10512896;28;20285;-80
2021/11/13 11:20:02;;;;;;;20.93;19.10;;;10.40;99.90;;;;;;10511035;28;20220;-80
2021/11/13 11:25:07;;;;;;;20.10;18.30;;;10.40;99.90;;;;;;10511582;28;20255;-80
2021/11/13 11:30:13;;;;;;;19.40;17.60;;;10.40;99.90;;;;;;10539188;28;20263;-80
2021/11/13 11:35:19;;;;;;;21.50;19.60;;;10.40;99.90;;;;;;10540839;28;20224;-80
2021/11/13 11:40:23;;;;;;;21.17;19.07;;;10.40;99.90;;;;;;10504511;28;20204;-80
2021/11/13 11:45:29;;;;;;;22.27;20.20;;;10.30;99.90;;;;;;10516908;28;20614;-80
2021/11/13 11:50:33;;;;;;;21.27;19.43;;;10.30;99.90;;;;;;10520673;28;20203;-80
2021/11/13 11:55:36;;;;;;;21.93;20.03;;;10.30;99.90;;;;;;10510906;28;20224;-80
2021/11/13 12:00:43;;;;;;;21.70;19.73;;;10.30;99.90;;;;;;10530235;28;20656;-80
2021/11/13 12:05:50;;;;;;;21.87;19.77;;;10.30;99.90;;;;;;10516053;28;20224;-80
2021/11/13 12:10:53;;;;;;;22.20;19.90;;;10.20;99.90;;;;;;10529378;28;20227;-80
2021/11/13 12:15:59;;;;;;;21.30;19.40;;;10.20;99.90;;;;;;10499846;28;20747;-80
2021/11/13 12:21:10;;;;;;;22.17;19.93;;;10.30;99.90;;;;;;10504056;28;20581;-80
2021/11/13 12:26:13;;;;;;;22.60;20.60;;;10.30;99.90;;;;;;10495347;28;20320;-80
2021/11/13 12:31:21;;;;;;;21.47;19.60;;;10.40;99.90;;;;;;10501708;28;20733;-80
2021/11/13 12:36:26;;;;;;;21.67;19.67;;;10.40;99.90;;;;;;10499293;28;20223;-81
2021/11/13 12:41:40;;;;;;;23.80;21.37;;;10.50;99.90;;;;;;10505938;28;20211;-80
2021/11/13 12:46:45;;;;;;;24.80;21.83;;;10.50;99.90;;;;;;10482157;28;20251;-80
2021/11/13 12:52:04;;;;;;;23.23;21.13;;;10.50;99.90;;;;;;10486070;28;20201;-80
2021/11/13 12:57:11;;;;;;;22.97;20.77;;;10.50;99.90;;;;;;10507307;28;20216;-80
2021/11/13 13:02:17;;;;;;;21.67;19.80;;;10.50;99.90;;;;;;10535974;28;20229;-80
2021/11/13 13:07:24;;;;;;;25.17;22.97;;;10.50;99.90;;;;;;10535062;28;20224;-80
2021/11/13 13:12:29;;;;;;;23.57;21.60;;;10.50;99.90;;;;;;10512907;28;20204;-80
2021/11/13 13:17:35;;;;;;;23.10;21.00;;;10.50;99.90;;;;;;10517180;28;20257;-80
2021/11/13 13:22:38;;;;;;;24.73;22.17;;;10.50;99.90;;;;;;10538112;28;20207;-80
2021/11/13 13:27:41;;;;;;;26.67;24.40;;;10.50;99.90;;;;;;10536576;28;20220;-80
2021/11/13 13:32:45;;;;;;;25.77;23.43;;;10.50;99.90;;;;;;10530212;28;20203;-80
2021/11/13 13:37:51;;;;;;;23.37;21.17;;;10.50;99.90;;;;;;10532012;28;20220;-79
2021/11/13 13:42:56;;;;;;;25.00;22.53;;;10.50;99.90;;;;;;10504919;28;20196;-79
2021/11/13 13:48:00;;;;;;;23.40;21.40;;;10.50;99.90;;;;;;10508322;28;20315;-80
2021/11/13 13:53:02;;;;;;;25.27;22.77;;;10.50;99.90;;;;;;10536554;28;20287;-80
2021/11/13 13:58:07;;;;;;;24.10;21.90;;;10.40;99.90;;;;;;10535397;28;20691;-80
2021/11/13 14:03:11;;;;;;;22.90;20.70;;;10.40;99.90;;;;;;10515507;28;20290;-80
2021/11/13 14:08:14;;;;;;;24.93;22.80;;;10.40;99.90;;;;;;10511461;28;20312;-80
2021/11/13 14:13:18;;;;;;;24.10;21.80;;;10.40;99.90;;;;;;10490633;28;20211;-79
2021/11/13 14:18:23;;;;;;;24.40;22.10;;;10.40;99.90;;;;;;10516799;28;20314;-80
2021/11/13 14:23:26;;;;;;;24.67;22.27;;;10.40;99.90;;;;;;10494210;28;20238;-80
2021/11/13 14:28:30;;;;;;;25.90;23.50;;;10.40;99.90;;;;;;10495492;28;20229;-80
2021/11/13 14:33:34;;;;;;;24.50;22.30;;;10.40;99.90;;;;;;10525738;28;20206;-80
2021/11/13 14:38:37;;;;;;;24.73;22.53;;;10.40;99.90;;;;;;10530727;28;20224;-79
2021/11/13 14:43:39;;;;;;;21.93;20.03;;;10.40;99.90;;;;;;10535834;28;20300;-80
2021/11/13 14:48:44;;;;;;;23.97;21.40;;;10.50;99.90;;;;;;10539348;28;20715;-80
2021/11/13 14:53:46;;;;;;;24.23;21.77;;;10.40;99.90;;;;;;10493801;28;20298;-80
2021/11/13 14:59:00;;;;;;;23.73;21.63;;;10.40;99.90;;;;;;10526651;28;20687;-79
2021/11/13 15:04:07;;;;;;;24.10;21.90;;;10.40;99.90;;;;;;10514244;28;20291;-81
2021/11/13 15:09:10;;;;;;;23.40;21.20;;;10.40;99.90;;;;;;10512428;28;20224;-80
2021/11/13 15:14:20;;;;;;;29.90;26.80;;;10.40;99.90;;;;;;10529266;28;20283;-80
2021/11/13 15:19:26;;;;;;;30.77;27.87;;;10.40;99.90;;;;;;10527560;28;20224;-81
2021/11/13 15:24:28;;;;;;;27.77;25.03;;;10.40;99.90;;;;;;10504834;28;20227;-80
2021/11/13 15:29:31;;;;;;;26.53;24.13;;;10.40;99.90;;;;;;10480565;28;20225;-80
2021/11/13 15:34:37;;;;;;;27.13;24.53;;;10.40;99.90;;;;;;10513034;28;20201;-80
2021/11/13 15:39:42;;;;;;;27.50;25.10;;;10.40;99.90;;;;;;10512214;28;20298;-80
2021/11/13 15:44:47;;;;;;;25.40;23.13;;;10.40;99.90;;;;;;10502123;28;20220;-80
2021/11/13 15:49:59;;;;;;;25.90;23.40;;;10.40;99.90;;;;;;10507769;28;20645;-80
2021/11/13 15:55:01;;;;;;;24.07;21.83;;;10.30;99.90;;;;;;10510632;28;20812;-80
2021/11/13 16:00:09;;;;;;;26.87;24.37;;;10.30;99.90;;;;;;10503967;28;20204;-80
2021/11/13 16:05:35;;;;;;;27.83;25.07;;;10.30;99.90;;;;;;10523458;28;20710;-80
2021/11/13 16:10:47;;;;;;;31.63;26.13;;;10.40;99.90;;;;;;10511122;28;20706;-80
2021/11/13 16:15:53;;;;;;;26.70;24.13;;;10.30;99.90;;;;;;10513255;28;20236;-80
2021/11/13 16:21:02;;;;;;;26.97;24.57;;;10.30;99.90;;;;;;10502402;28;20258;-80
2021/11/13 16:26:05;;;;;;;25.83;23.50;;;10.30;99.90;;;;;;10523193;28;20240;-80
2021/11/13 16:31:07;;;;;;;27.50;24.53;;;10.30;99.90;;;;;;10517489;28;20254;-80
2021/11/13 16:36:10;;;;;;;25.50;23.13;;;10.30;99.90;;;;;;10520196;28;20587;-80
2021/11/13 16:41:17;;;;;;;25.17;22.47;;;10.30;99.90;;;;;;10492842;28;20207;-80
2021/11/13 16:46:22;;;;;;;29.03;26.03;;;10.30;99.90;;;;;;10494945;28;20219;-79
2021/11/13 16:51:28;;;;;;;26.50;24.10;;;10.30;99.90;;;;;;10514020;28;20739;-79
2021/11/13 16:56:31;;;;;;;28.60;25.87;;;10.30;99.90;;;;;;10533866;28;20231;-79
2021/11/13 17:01:36;;;;;;;28.83;26.17;;;10.30;99.90;;;;;;10507601;28;20570;-79
2021/11/13 17:06:41;;;;;;;28.33;25.60;;;10.30;99.90;;;;;;10509858;28;20242;-79
2021/11/13 17:11:47;;;;;;;27.60;24.93;;;10.30;99.90;;;;;;10511327;28;20202;-79
2021/11/13 17:16:52;;;;;;;25.97;23.67;;;10.20;99.90;;;;;;10510051;28;20630;-79
2021/11/13 17:21:55;;;;;;;28.03;25.53;;;10.20;99.90;;;;;;10489850;28;20208;-79
2021/11/13 17:26:59;;;;;;;27.23;24.63;;;10.20;99.90;;;;;;10489844;28;20251;-79
2021/11/13 17:32:01;;;;;;;27.57;24.70;;;10.20;99.90;;;;;;10515165;28;20196;-79
2021/11/13 17:37:07;;;;;;;25.30;23.10;;;10.20;99.90;;;;;;10513958;28;20767;-79
2021/11/13 17:42:09;;;;;;;28.27;25.67;;;10.20;99.90;;;;;;10510429;28;20196;-79
2021/11/13 17:47:12;;;;;;;28.80;26.03;;;10.20;99.90;;;;;;10512337;28;20576;-79
2021/11/13 17:52:15;;;;;;;30.50;27.80;;;10.20;99.90;;;;;;10525373;28;20200;-79
2021/11/13 17:57:19;;;;;;;31.73;28.93;;;10.20;99.90;;;;;;10527327;28;20215;-79
2021/11/13 18:02:25;;;;;;;28.53;25.90;;;10.20;99.90;;;;;;10522109;28;20817;-79
2021/11/13 18:07:29;;;;;;;27.50;24.90;;;10.20;99.90;;;;;;10543141;22;20315;-85
2021/11/13 18:12:31;;;;;;;29.17;26.40;;;10.20;99.90;;;;;;10497249;28;20232;-84
2021/11/13 18:17:33;;;;;;;27.63;25.20;;;10.20;99.90;;;;;;10504341;28;20220;-84
2021/11/13 18:22:37;;;;;;;26.23;23.67;;;10.10;99.90;;;;;;10519635;28;20223;-84
2021/11/13 18:27:40;;;;;;;27.10;24.50;;;10.10;99.90;;;;;;10479857;28;20232;-85
2021/11/13 18:32:43;;;;;;;29.83;26.60;;;10.10;99.90;;;;;;10479144;28;20648;-84
2021/11/13 18:37:46;;;;;;;29.47;26.77;;;10.10;99.90;;;;;;10497256;28;20212;-86
2021/11/13 18:42:49;;;;;;;32.97;29.87;;;10.10;99.90;;;;;;10484414;28;20679;-84
2021/11/13 18:47:52;;;;;;;31.67;28.57;;;10.10;99.90;;;;;;10485725;28;20315;-85
2021/11/13 18:52:55;;;;;;;31.23;28.43;;;10.10;99.90;;;;;;10485453;28;20283;-84
2021/11/13 18:57:58;;;;;;;30.70;27.90;;;10.10;99.90;;;;;;10485129;28;20307;-86
2021/11/13 19:03:00;;;;;;;34.60;31.10;;;10.20;99.90;;;;;;10500613;28;20264;-86
2021/11/13 19:08:04;;;;;;;31.37;28.23;;;10.20;99.90;;;;;;10503349;28;20220;-85
2021/11/13 19:13:06;;;;;;;31.30;28.30;;;10.20;99.90;;;;;;10490051;28;20208;-86
2021/11/13 19:18:10;;;;;;;28.17;25.23;;;10.20;99.90;;;;;;10485172;28;20292;-86
2021/11/13 19:23:14;;;;;;;29.60;26.70;;;10.20;99.90;;;;;;10496430;28;20201;-86
2021/11/13 19:28:18;;;;;;;28.83;26.27;;;10.10;99.90;;;;;;10500259;28;20599;-86
2021/11/13 19:33:20;;;;;;;30.13;27.53;;;10.10;99.90;;;;;;10494443;28;20222;-86
2021/11/13 19:38:25;;;;;;;28.10;25.50;;;10.20;99.90;;;;;;10499032;28;20224;-83
2021/11/13 19:43:29;;;;;;;27.07;24.67;;;10.20;99.90;;;;;;10499859;28;20205;-85
2021/11/13 19:48:31;;;;;;;27.17;24.57;;;10.10;99.90;;;;;;10499592;28;20251;-85
2021/11/13 19:53:34;;;;;;;26.30;23.60;;;10.10;99.90;;;;;;10482618;28;20208;-84
2021/11/13 19:58:36;;;;;;;23.13;21.07;;;10.10;99.90;;;;;;10482492;28;20221;-86
2021/11/13 20:03:42;;;;;;;21.97;19.97;;;10.20;99.90;;;;;;10481229;28;20266;-85
2021/11/13 20:08:45;;;;;;;21.67;19.37;;;10.20;99.90;;;;;;10478711;28;20229;-84
2021/11/13 20:13:48;;;;;;;20.03;18.20;;;10.20;99.90;;;;;;10474120;28;20725;-85
2021/11/13 20:18:50;;;;;;;19.47;17.73;;;10.10;99.90;;;;;;10482064;28;20314;-85
2021/11/13 20:23:54;;;;;;;18.63;17.03;;;10.20;99.90;;;;;;10467406;28;20200;-86
2021/11/13 20:28:57;;;;;;;22.10;20.03;;;10.20;99.90;;;;;;10473902;28;20311;-84
2021/11/13 20:33:59;;;;;;;36.53;32.83;;;10.20;99.90;;;;;;10473692;28;20218;-85
2021/11/13 20:39:03;;;;;;;28.87;26.07;;;10.20;99.90;;;;;;10486454;28;20244;-84
2021/11/13 20:44:06;;;;;;;20.83;18.87;;;10.20;99.90;;;;;;10483975;28;20205;-84
2021/11/13 20:49:08;;;;;;;26.93;24.33;;;10.20;99.90;;;;;;10469163;28;20253;-84
2021/11/13 20:54:13;;;;;;;25.73;23.43;;;10.20;99.90;;;;;;10433872;28;20189;-84
2021/11/13 20:59:15;;;;;;;22.77;20.67;;;10.20;99.90;;;;;;10446198;28;20220;-85
2021/11/13 21:04:19;;;;;;;21.10;19.00;;;10.20;99.90;;;;;;10443694;28;20210;-85
2021/11/13 21:09:22;;;;;;;21.40;19.40;;;10.20;99.90;;;;;;10457345;28;20235;-84
2021/11/13 21:14:25;;;;;;;20.07;17.90;;;10.20;99.90;;;;;;10484218;28;20211;-85
2021/11/13 21:19:28;;;;;;;19.53;17.83;;;10.10;99.90;;;;;;10445293;28;20350;-85
2021/11/13 21:24:32;;;;;;;20.03;18.03;;;10.10;99.90;;;;;;10448465;28;20339;-85
2021/11/13 21:29:36;;;;;;;19.40;17.50;;;10.10;99.90;;;;;;10475689;28;20221;-85
2021/11/13 21:34:42;;;;;;;19.60;17.80;;;10.10;99.90;;;;;;10444151;28;20201;-86
2021/11/13 21:39:46;;;;;;;19.57;17.43;;;10.20;99.90;;;;;;10471975;28;20220;-85
2021/11/13 21:44:48;;;;;;;19.17;17.47;;;10.20;99.90;;;;;;10479749;28;20691;-85
2021/11/13 21:49:50;;;;;;;18.20;16.50;;;10.20;99.90;;;;;;10473822;28;20287;-85
2021/11/13 21:54:54;;;;;;;18.10;16.43;;;10.20;99.90;;;;;;10474382;28;20210;-85
2021/11/13 21:59:56;;;;;;;16.33;14.83;;;10.20;99.90;;;;;;10462311;28;20209;-85
2021/11/13 22:05:00;;;;;;;16.50;15.00;;;10.30;99.90;;;;;;10473065;28;20204;-85
2021/11/13 22:10:04;;;;;;;15.80;14.30;;;10.20;99.90;;;;;;10472743;28;20235;-85
2021/11/13 22:15:07;;;;;;;13.83;12.63;;;10.20;99.90;;;;;;10484758;28;20224;-84
2021/11/13 22:20:13;;;;;;;15.33;14.03;;;10.20;99.90;;;;;;10481416;28;20208;-86
2021/11/13 22:25:18;;;;;;;14.27;12.80;;;10.20;99.90;;;;;;10487828;28;20660;-85
2021/11/13 22:30:23;;;;;;;15.87;14.40;;;10.30;99.90;;;;;;10458659;28;20228;-84
2021/11/13 22:35:30;;;;;;;15.10;13.73;;;10.20;99.90;;;;;;10464728;28;20228;-85
2021/11/13 22:40:42;;;;;;;14.10;12.87;;;10.30;99.90;;;;;;10465103;28;20205;-84
2021/11/13 22:45:46;;;;;;;15.17;13.77;;;10.20;99.90;;;;;;10480457;28;20274;-85
2021/11/13 22:50:49;;;;;;;17.17;12.80;;;10.20;99.90;;;;;;10450904;28;20727;-83
2021/11/13 22:55:53;;;;;;;13.60;12.40;;;10.20;99.90;;;;;;10483694;28;20270;-85
2021/11/13 23:01:34;;;;;;;12.67;11.60;;;10.20;99.90;;;;;;10484759;28;20720;-85
2021/11/13 23:06:37;;;;;;;11.03;10.10;;;10.20;99.90;;;;;;10436798;28;20267;-86
2021/11/13 23:11:41;;;;;;;11.20;10.20;;;10.20;99.90;;;;;;10447213;28;20209;-84
2021/11/13 23:16:47;;;;;;;10.87;9.87;;;10.30;99.90;;;;;;10452578;28;20577;-84
2021/11/13 23:21:50;;;;;;;9.97;9.17;;;10.30;99.90;;;;;;10455117;28;20255;-85
2021/11/13 23:26:55;;;;;;;9.40;8.70;;;10.30;99.90;;;;;;10452094;28;20231;-86
2021/11/13 23:31:58;;;;;;;9.43;8.63;;;10.30;99.90;;;;;;10462507;28;20225;-85
2021/11/13 23:37:00;;;;;;;9.63;8.93;;;10.30;99.90;;;;;;10452226;28;20221;-85
2021/11/13 23:42:04;;;;;;;10.67;9.80;;;10.30;99.90;;;;;;10472280;28;20297;-85
2021/11/13 23:47:06;;;;;;;12.03;10.93;;;10.30;99.90;;;;;;10497749;28;20216;-85
2021/11/13 23:52:08;;;;;;;16.23;14.60;;;10.30;99.90;;;;;;10479961;28;20208;-85
2021/11/13 23:57:12;;;;;;;17.37;15.87;;;10.40;99.90;;;;;;10480868;28;20590;-84
